sensor_id;sensor_type;location;lat;lon;timestamp;P1;durP1;ratioP1;P2;durP2;ratioP2
30533;SDS011;73248;52.398;9.814;2023-10-13T00:01:37;18.23;;;10.90;;
30533;SDS011;73248;52.398;9.814;2023-10-13T00:04:02;20.20;;;11.25;;
30533;SDS011;73248;52.398;9.814;2023-10-13T00:06:30;23.17;;;12.02;;
30533;SDS011;73248;52.398;9.814;2023-10-13T00:08:56;20.92;;;10.38;;
30533;SDS011;73248;52.398;9.814;2023-10-13T00:11:24;22.23;;;11.07;;
30533;SDS011;73248;52.398;9.814;2023-10-13T00:13:51;19.87;;;11.27;;
30533;SDS011;73248;52.398;9.814;2023-10-13T00:16:19;17.48;;;10.95;;
30533;SDS011;73248;52.398;9.814;2023-10-13T00:18:53;16.95;;;9.63;;
30533;SDS011;73248;52.398;9.814;2023-10-13T00:21:22;16.17;;;10.05;;
30533;SDS011;73248;52.398;9.814;2023-10-13T00:23:57;19.55;;;10.20;;
30533;SDS011;73248;52.398;9.814;2023-10-13T00:26:30;23.83;;;10.88;;
30533;SDS011;73248;52.398;9.814;2023-10-13T00:28:59;20.08;;;10.45;;
30533;SDS011;73248;52.398;9.814;2023-10-13T00:31:46;18.23;;;11.10;;
30533;SDS011;73248;52.398;9.814;2023-10-13T00:34:13;17.35;;;10.07;;
30533;SDS011;73248;52.398;9.814;2023-10-13T00:37:07;20.95;;;10.65;;
30533;SDS011;73248;52.398;9.814;2023-10-13T00:39:52;24.53;;;11.07;;
30533;SDS011;73248;52.398;9.814;2023-10-13T00:42:21;18.45;;;9.73;;
30533;SDS011;73248;52.398;9.814;2023-10-13T00:44:58;16.17;;;10.23;;
30533;SDS011;73248;52.398;9.814;2023-10-13T00:47:25;26.63;;;11.20;;
30533;SDS011;73248;52.398;9.814;2023-10-13T00:50:17;20.27;;;10.25;;
30533;SDS011;73248;52.398;9.814;2023-10-13T00:52:43;24.15;;;9.80;;
30533;SDS011;73248;52.398;9.814;2023-10-13T00:55:12;23.70;;;11.35;;
30533;SDS011;73248;52.398;9.814;2023-10-13T00:57:39;19.02;;;9.88;;
30533;SDS011;73248;52.398;9.814;2023-10-13T01:00:06;23.13;;;11.15;;
30533;SDS011;73248;52.398;9.814;2023-10-13T01:02:50;20.25;;;9.70;;
30533;SDS011;73248;52.398;9.814;2023-10-13T01:05:31;21.50;;;10.35;;
30533;SDS011;73248;52.398;9.814;2023-10-13T01:08:02;17.85;;;10.50;;
30533;SDS011;73248;52.398;9.814;2023-10-13T01:10:30;22.70;;;11.40;;
30533;SDS011;73248;52.398;9.814;2023-10-13T01:12:57;18.75;;;10.20;;
30533;SDS011;73248;52.398;9.814;2023-10-13T01:15:29;21.77;;;9.93;;
30533;SDS011;73248;52.398;9.814;2023-10-13T01:18:06;17.73;;;10.32;;
30533;SDS011;73248;52.398;9.814;2023-10-13T01:20:42;18.85;;;11.70;;
30533;SDS011;73248;52.398;9.814;2023-10-13T01:23:14;18.38;;;10.48;;
30533;SDS011;73248;52.398;9.814;2023-10-13T01:25:43;17.95;;;10.52;;
30533;SDS011;73248;52.398;9.814;2023-10-13T01:28:13;19.85;;;12.10;;
30533;SDS011;73248;52.398;9.814;2023-10-13T01:33:14;19.27;;;10.75;;
30533;SDS011;73248;52.398;9.814;2023-10-13T01:35:41;20.08;;;10.57;;
30533;SDS011;73248;52.398;9.814;2023-10-13T01:38:15;25.02;;;10.93;;
30533;SDS011;73248;52.398;9.814;2023-10-13T01:40:43;21.05;;;10.90;;
30533;SDS011;73248;52.398;9.814;2023-10-13T01:43:08;21.15;;;11.68;;
30533;SDS011;73248;52.398;9.814;2023-10-13T01:45:36;22.00;;;11.55;;
30533;SDS011;73248;52.398;9.814;2023-10-13T01:48:14;18.63;;;11.45;;
30533;SDS011;73248;52.398;9.814;2023-10-13T01:50:46;21.15;;;11.68;;
30533;SDS011;73248;52.398;9.814;2023-10-13T01:53:20;21.40;;;12.07;;
30533;SDS011;73248;52.398;9.814;2023-10-13T01:58:15;18.80;;;11.27;;
30533;SDS011;73248;52.398;9.814;2023-10-13T02:00:41;19.52;;;11.65;;
30533;SDS011;73248;52.398;9.814;2023-10-13T02:03:08;23.17;;;13.07;;
30533;SDS011;73248;52.398;9.814;2023-10-13T02:05:41;26.98;;;12.18;;
30533;SDS011;73248;52.398;9.814;2023-10-13T02:08:17;23.35;;;13.52;;
30533;SDS011;73248;52.398;9.814;2023-10-13T02:10:50;25.63;;;13.52;;
30533;SDS011;73248;52.398;9.814;2023-10-13T02:13:17;21.10;;;11.73;;
30533;SDS011;73248;52.398;9.814;2023-10-13T02:15:46;21.98;;;12.65;;
30533;SDS011;73248;52.398;9.814;2023-10-13T02:18:15;23.20;;;13.07;;
30533;SDS011;73248;52.398;9.814;2023-10-13T02:23:21;25.60;;;12.52;;
30533;SDS011;73248;52.398;9.814;2023-10-13T02:25:54;23.30;;;13.13;;
30533;SDS011;73248;52.398;9.814;2023-10-13T02:28:27;25.02;;;13.15;;
30533;SDS011;73248;52.398;9.814;2023-10-13T02:31:01;27.75;;;14.38;;
30533;SDS011;73248;52.398;9.814;2023-10-13T02:33:28;27.48;;;12.43;;
30533;SDS011;73248;52.398;9.814;2023-10-13T02:35:57;23.15;;;13.50;;
30533;SDS011;73248;52.398;9.814;2023-10-13T02:38:33;19.38;;;13.20;;
30533;SDS011;73248;52.398;9.814;2023-10-13T02:41:17;22.02;;;13.30;;
30533;SDS011;73248;52.398;9.814;2023-10-13T02:43:54;23.50;;;13.52;;
30533;SDS011;73248;52.398;9.814;2023-10-13T02:46:21;27.08;;;14.18;;
30533;SDS011;73248;52.398;9.814;2023-10-13T02:48:47;24.85;;;14.95;;
30533;SDS011;73248;52.398;9.814;2023-10-13T02:51:18;29.80;;;14.15;;
30533;SDS011;73248;52.398;9.814;2023-10-13T02:53:50;24.63;;;14.00;;
30533;SDS011;73248;52.398;9.814;2023-10-13T02:56:17;25.58;;;14.73;;
30533;SDS011;73248;52.398;9.814;2023-10-13T02:58:49;24.95;;;14.90;;
30533;SDS011;73248;52.398;9.814;2023-10-13T03:01:20;23.67;;;15.10;;
30533;SDS011;73248;52.398;9.814;2023-10-13T03:03:47;28.88;;;17.38;;
30533;SDS011;73248;52.398;9.814;2023-10-13T03:06:19;24.10;;;14.63;;
30533;SDS011;73248;52.398;9.814;2023-10-13T03:08:58;28.55;;;15.77;;
30533;SDS011;73248;52.398;9.814;2023-10-13T03:11:45;24.02;;;14.48;;
30533;SDS011;73248;52.398;9.814;2023-10-13T03:14:14;26.35;;;15.05;;
30533;SDS011;73248;52.398;9.814;2023-10-13T03:16:55;26.43;;;14.70;;
30533;SDS011;73248;52.398;9.814;2023-10-13T03:19:28;21.65;;;14.43;;
30533;SDS011;73248;52.398;9.814;2023-10-13T03:21:57;24.55;;;14.98;;
30533;SDS011;73248;52.398;9.814;2023-10-13T03:24:35;24.03;;;14.53;;
30533;SDS011;73248;52.398;9.814;2023-10-13T03:27:01;21.23;;;14.18;;
30533;SDS011;73248;52.398;9.814;2023-10-13T03:29:34;24.05;;;14.30;;
30533;SDS011;73248;52.398;9.814;2023-10-13T03:32:00;22.93;;;14.37;;
30533;SDS011;73248;52.398;9.814;2023-10-13T03:34:36;20.60;;;14.55;;
30533;SDS011;73248;52.398;9.814;2023-10-13T03:37:11;22.67;;;14.80;;
30533;SDS011;73248;52.398;9.814;2023-10-13T03:39:43;22.33;;;14.38;;
30533;SDS011;73248;52.398;9.814;2023-10-13T03:42:10;27.77;;;15.80;;
30533;SDS011;73248;52.398;9.814;2023-10-13T03:44:44;23.02;;;14.60;;
30533;SDS011;73248;52.398;9.814;2023-10-13T03:47:11;23.67;;;15.10;;
30533;SDS011;73248;52.398;9.814;2023-10-13T03:49:46;21.33;;;13.82;;
30533;SDS011;73248;52.398;9.814;2023-10-13T03:52:16;25.95;;;14.15;;
30533;SDS011;73248;52.398;9.814;2023-10-13T03:54:47;26.83;;;13.38;;
30533;SDS011;73248;52.398;9.814;2023-10-13T03:57:16;20.25;;;13.30;;
30533;SDS011;73248;52.398;9.814;2023-10-13T03:59:41;22.92;;;14.25;;
30533;SDS011;73248;52.398;9.814;2023-10-13T04:02:12;26.48;;;13.00;;
30533;SDS011;73248;52.398;9.814;2023-10-13T04:04:42;27.60;;;13.65;;
30533;SDS011;73248;52.398;9.814;2023-10-13T04:07:17;20.60;;;12.88;;
30533;SDS011;73248;52.398;9.814;2023-10-13T04:10:04;21.25;;;13.25;;
30533;SDS011;73248;52.398;9.814;2023-10-13T04:12:49;22.15;;;12.38;;
30533;SDS011;73248;52.398;9.814;2023-10-13T04:15:33;19.67;;;12.23;;
30533;SDS011;73248;52.398;9.814;2023-10-13T04:18:06;19.48;;;12.15;;
30533;SDS011;73248;52.398;9.814;2023-10-13T04:20:43;20.48;;;11.50;;
30533;SDS011;73248;52.398;9.814;2023-10-13T04:25:43;22.73;;;10.52;;
30533;SDS011;73248;52.398;9.814;2023-10-13T04:28:12;19.40;;;10.70;;
30533;SDS011;73248;52.398;9.814;2023-10-13T04:30:59;18.42;;;11.00;;
30533;SDS011;73248;52.398;9.814;2023-10-13T04:33:59;15.88;;;10.73;;
30533;SDS011;73248;52.398;9.814;2023-10-13T04:36:27;18.20;;;10.93;;
30533;SDS011;73248;52.398;9.814;2023-10-13T04:41:25;17.65;;;10.23;;
30533;SDS011;73248;52.398;9.814;2023-10-13T04:43:57;16.67;;;10.73;;
30533;SDS011;73248;52.398;9.814;2023-10-13T04:46:30;15.73;;;9.60;;
30533;SDS011;73248;52.398;9.814;2023-10-13T04:49:22;18.25;;;10.20;;
30533;SDS011;73248;52.398;9.814;2023-10-13T04:51:58;16.00;;;9.23;;
30533;SDS011;73248;52.398;9.814;2023-10-13T04:54:26;14.85;;;10.32;;
30533;SDS011;73248;52.398;9.814;2023-10-13T04:56:58;18.40;;;10.32;;
30533;SDS011;73248;52.398;9.814;2023-10-13T04:59:44;19.83;;;10.40;;
30533;SDS011;73248;52.398;9.814;2023-10-13T05:02:32;15.20;;;10.30;;
30533;SDS011;73248;52.398;9.814;2023-10-13T05:05:05;18.10;;;11.15;;
30533;SDS011;73248;52.398;9.814;2023-10-13T05:07:47;22.98;;;10.80;;
30533;SDS011;73248;52.398;9.814;2023-10-13T05:10:33;19.00;;;10.23;;
30533;SDS011;73248;52.398;9.814;2023-10-13T05:13:17;16.33;;;9.65;;
30533;SDS011;73248;52.398;9.814;2023-10-13T05:16:04;17.45;;;10.43;;
30533;SDS011;73248;52.398;9.814;2023-10-13T05:18:48;14.75;;;10.20;;
30533;SDS011;73248;52.398;9.814;2023-10-13T05:21:32;16.25;;;10.65;;
30533;SDS011;73248;52.398;9.814;2023-10-13T05:24:17;16.20;;;10.18;;
30533;SDS011;73248;52.398;9.814;2023-10-13T05:27:01;17.40;;;10.18;;
30533;SDS011;73248;52.398;9.814;2023-10-13T05:30:02;20.80;;;10.73;;
30533;SDS011;73248;52.398;9.814;2023-10-13T05:32:46;21.42;;;9.45;;
30533;SDS011;73248;52.398;9.814;2023-10-13T05:35:36;14.40;;;9.50;;
30533;SDS011;73248;52.398;9.814;2023-10-13T05:38:22;13.70;;;9.10;;
30533;SDS011;73248;52.398;9.814;2023-10-13T05:41:06;21.45;;;10.57;;
30533;SDS011;73248;52.398;9.814;2023-10-13T05:43:50;13.65;;;9.40;;
30533;SDS011;73248;52.398;9.814;2023-10-13T05:46:35;18.33;;;9.45;;
30533;SDS011;73248;52.398;9.814;2023-10-13T05:49:04;15.75;;;9.35;;
30533;SDS011;73248;52.398;9.814;2023-10-13T05:51:46;13.23;;;9.25;;
30533;SDS011;73248;52.398;9.814;2023-10-13T05:54:17;14.57;;;9.32;;
30533;SDS011;73248;52.398;9.814;2023-10-13T05:56:47;15.20;;;9.38;;
30533;SDS011;73248;52.398;9.814;2023-10-13T05:59:32;14.98;;;9.40;;
30533;SDS011;73248;52.398;9.814;2023-10-13T06:02:18;13.60;;;8.55;;
30533;SDS011;73248;52.398;9.814;2023-10-13T06:05:03;16.98;;;8.55;;
30533;SDS011;73248;52.398;9.814;2023-10-13T06:07:49;14.55;;;8.70;;
30533;SDS011;73248;52.398;9.814;2023-10-13T06:10:36;15.25;;;8.52;;
30533;SDS011;73248;52.398;9.814;2023-10-13T06:13:20;12.43;;;8.50;;
30533;SDS011;73248;52.398;9.814;2023-10-13T06:16:09;17.13;;;7.88;;
30533;SDS011;73248;52.398;9.814;2023-10-13T06:18:57;14.38;;;8.52;;
30533;SDS011;73248;52.398;9.814;2023-10-13T06:21:42;15.55;;;8.15;;
30533;SDS011;73248;52.398;9.814;2023-10-13T06:24:27;17.05;;;8.70;;
30533;SDS011;73248;52.398;9.814;2023-10-13T06:27:12;15.30;;;8.10;;
30533;SDS011;73248;52.398;9.814;2023-10-13T06:29:56;12.95;;;8.52;;
30533;SDS011;73248;52.398;9.814;2023-10-13T06:32:22;12.98;;;6.97;;
30533;SDS011;73248;52.398;9.814;2023-10-13T06:34:56;13.60;;;7.20;;
30533;SDS011;73248;52.398;9.814;2023-10-13T06:37:30;13.60;;;7.38;;
30533;SDS011;73248;52.398;9.814;2023-10-13T06:39:59;12.70;;;8.25;;
30533;SDS011;73248;52.398;9.814;2023-10-13T06:42:33;10.45;;;7.07;;
30533;SDS011;73248;52.398;9.814;2023-10-13T06:45:07;10.77;;;7.38;;
30533;SDS011;73248;52.398;9.814;2023-10-13T06:47:34;14.55;;;7.35;;
30533;SDS011;73248;52.398;9.814;2023-10-13T06:50:06;14.73;;;7.93;;
30533;SDS011;73248;52.398;9.814;2023-10-13T06:52:40;15.10;;;7.47;;
30533;SDS011;73248;52.398;9.814;2023-10-13T06:55:10;13.45;;;7.28;;
30533;SDS011;73248;52.398;9.814;2023-10-13T06:57:59;12.23;;;7.03;;
30533;SDS011;73248;52.398;9.814;2023-10-13T07:00:26;16.15;;;8.13;;
30533;SDS011;73248;52.398;9.814;2023-10-13T07:02:59;13.30;;;7.20;;
30533;SDS011;73248;52.398;9.814;2023-10-13T07:05:37;10.93;;;6.28;;
30533;SDS011;73248;52.398;9.814;2023-10-13T07:08:06;10.38;;;7.38;;
30533;SDS011;73248;52.398;9.814;2023-10-13T07:10:33;15.20;;;7.73;;
30533;SDS011;73248;52.398;9.814;2023-10-13T07:13:18;11.65;;;7.43;;
30533;SDS011;73248;52.398;9.814;2023-10-13T07:15:47;12.50;;;6.90;;
30533;SDS011;73248;52.398;9.814;2023-10-13T07:18:16;14.63;;;7.28;;
30533;SDS011;73248;52.398;9.814;2023-10-13T07:20:48;14.70;;;7.20;;
30533;SDS011;73248;52.398;9.814;2023-10-13T07:23:22;15.85;;;6.82;;
30533;SDS011;73248;52.398;9.814;2023-10-13T07:28:20;14.02;;;7.25;;
30533;SDS011;73248;52.398;9.814;2023-10-13T07:30:46;14.70;;;7.57;;
30533;SDS011;73248;52.398;9.814;2023-10-13T07:33:18;15.88;;;7.20;;
30533;SDS011;73248;52.398;9.814;2023-10-13T07:35:58;13.63;;;7.95;;
30533;SDS011;73248;52.398;9.814;2023-10-13T07:38:26;9.57;;;6.75;;
30533;SDS011;73248;52.398;9.814;2023-10-13T07:40:55;10.52;;;7.20;;
30533;SDS011;73248;52.398;9.814;2023-10-13T07:43:32;11.10;;;6.97;;
30533;SDS011;73248;52.398;9.814;2023-10-13T07:45:58;18.45;;;8.32;;
30533;SDS011;73248;52.398;9.814;2023-10-13T07:48:27;14.30;;;6.78;;
30533;SDS011;73248;52.398;9.814;2023-10-13T07:51:02;12.80;;;7.10;;
30533;SDS011;73248;52.398;9.814;2023-10-13T07:53:36;11.38;;;6.93;;
30533;SDS011;73248;52.398;9.814;2023-10-13T07:56:05;12.48;;;6.80;;
30533;SDS011;73248;52.398;9.814;2023-10-13T07:58:36;13.68;;;7.85;;
30533;SDS011;73248;52.398;9.814;2023-10-13T08:01:12;14.48;;;7.35;;
30533;SDS011;73248;52.398;9.814;2023-10-13T08:03:42;16.63;;;7.38;;
30533;SDS011;73248;52.398;9.814;2023-10-13T08:06:17;10.20;;;6.90;;
30533;SDS011;73248;52.398;9.814;2023-10-13T08:08:45;12.13;;;7.45;;
30533;SDS011;73248;52.398;9.814;2023-10-13T08:11:15;15.25;;;7.57;;
30533;SDS011;73248;52.398;9.814;2023-10-13T08:13:53;12.40;;;6.40;;
30533;SDS011;73248;52.398;9.814;2023-10-13T08:16:52;11.65;;;6.95;;
30533;SDS011;73248;52.398;9.814;2023-10-13T08:19:22;13.55;;;7.13;;
30533;SDS011;73248;52.398;9.814;2023-10-13T08:21:52;14.23;;;6.45;;
30533;SDS011;73248;52.398;9.814;2023-10-13T08:24:27;12.15;;;6.72;;
30533;SDS011;73248;52.398;9.814;2023-10-13T08:27:13;10.93;;;5.70;;
30533;SDS011;73248;52.398;9.814;2023-10-13T08:32:19;9.55;;;5.07;;
30533;SDS011;73248;52.398;9.814;2023-10-13T08:34:54;11.95;;;5.22;;
30533;SDS011;73248;52.398;9.814;2023-10-13T08:37:21;8.90;;;4.88;;
30533;SDS011;73248;52.398;9.814;2023-10-13T08:39:47;10.07;;;4.75;;
30533;SDS011;73248;52.398;9.814;2023-10-13T08:45:13;7.82;;;4.07;;
30533;SDS011;73248;52.398;9.814;2023-10-13T08:47:48;9.60;;;4.28;;
30533;SDS011;73248;52.398;9.814;2023-10-13T08:50:33;6.85;;;4.05;;
30533;SDS011;73248;52.398;9.814;2023-10-13T08:53:24;6.80;;;3.58;;
30533;SDS011;73248;52.398;9.814;2023-10-13T08:55:59;8.77;;;3.78;;
30533;SDS011;73248;52.398;9.814;2023-10-13T08:58:33;6.90;;;3.75;;
30533;SDS011;73248;52.398;9.814;2023-10-13T09:01:28;7.40;;;3.75;;
30533;SDS011;73248;52.398;9.814;2023-10-13T09:04:17;6.50;;;3.50;;
30533;SDS011;73248;52.398;9.814;2023-10-13T09:12:16;10.27;;;4.18;;
30533;SDS011;73248;52.398;9.814;2023-10-13T09:14:44;6.88;;;3.67;;
30533;SDS011;73248;52.398;9.814;2023-10-13T09:17:26;10.10;;;3.40;;
30533;SDS011;73248;52.398;9.814;2023-10-13T09:22:47;5.60;;;3.30;;
30533;SDS011;73248;52.398;9.814;2023-10-13T09:25:32;7.93;;;3.72;;
30533;SDS011;73248;52.398;9.814;2023-10-13T09:28:12;6.55;;;3.80;;
30533;SDS011;73248;52.398;9.814;2023-10-13T09:30:47;9.57;;;3.63;;
30533;SDS011;73248;52.398;9.814;2023-10-13T09:33:25;8.30;;;3.63;;
30533;SDS011;73248;52.398;9.814;2023-10-13T09:35:58;10.32;;;4.32;;
30533;SDS011;73248;52.398;9.814;2023-10-13T09:38:28;6.07;;;3.35;;
30533;SDS011;73248;52.398;9.814;2023-10-13T09:40:54;8.52;;;3.42;;
30533;SDS011;73248;52.398;9.814;2023-10-13T09:43:23;6.57;;;3.67;;
30533;SDS011;73248;52.398;9.814;2023-10-13T09:45:56;5.72;;;3.35;;
30533;SDS011;73248;52.398;9.814;2023-10-13T09:48:36;7.10;;;3.53;;
30533;SDS011;73248;52.398;9.814;2023-10-13T09:51:09;10.80;;;3.92;;
30533;SDS011;73248;52.398;9.814;2023-10-13T09:53:38;8.68;;;3.72;;
30533;SDS011;73248;52.398;9.814;2023-10-13T09:58:52;6.00;;;3.63;;
30533;SDS011;73248;52.398;9.814;2023-10-13T10:01:27;8.48;;;3.35;;
30533;SDS011;73248;52.398;9.814;2023-10-13T10:04:08;6.20;;;3.08;;
30533;SDS011;73248;52.398;9.814;2023-10-13T10:06:38;9.73;;;3.50;;
30533;SDS011;73248;52.398;9.814;2023-10-13T10:09:08;10.10;;;3.60;;
30533;SDS011;73248;52.398;9.814;2023-10-13T10:11:58;8.75;;;3.40;;
30533;SDS011;73248;52.398;9.814;2023-10-13T10:14:46;7.20;;;3.60;;
30533;SDS011;73248;52.398;9.814;2023-10-13T10:17:22;9.02;;;3.97;;
30533;SDS011;73248;52.398;9.814;2023-10-13T10:19:54;7.47;;;3.38;;
30533;SDS011;73248;52.398;9.814;2023-10-13T10:25:01;16.13;;;3.90;;
30533;SDS011;73248;52.398;9.814;2023-10-13T10:27:31;8.45;;;3.55;;
30533;SDS011;73248;52.398;9.814;2023-10-13T10:29:58;5.55;;;2.90;;
30533;SDS011;73248;52.398;9.814;2023-10-13T10:32:35;11.73;;;3.20;;
30533;SDS011;73248;52.398;9.814;2023-10-13T10:35:05;8.23;;;3.97;;
30533;SDS011;73248;52.398;9.814;2023-10-13T10:40:12;6.70;;;2.65;;
30533;SDS011;73248;52.398;9.814;2023-10-13T10:43:10;13.98;;;3.80;;
30533;SDS011;73248;52.398;9.814;2023-10-13T10:45:45;7.22;;;3.30;;
30533;SDS011;73248;52.398;9.814;2023-10-13T10:48:17;10.60;;;4.20;;
30533;SDS011;73248;52.398;9.814;2023-10-13T10:50:53;16.58;;;4.10;;
30533;SDS011;73248;52.398;9.814;2023-10-13T10:53:20;13.10;;;3.45;;
30533;SDS011;73248;52.398;9.814;2023-10-13T10:56:05;17.55;;;3.55;;
30533;SDS011;73248;52.398;9.814;2023-10-13T10:58:34;12.77;;;3.97;;
30533;SDS011;73248;52.398;9.814;2023-10-13T11:01:11;12.48;;;4.13;;
30533;SDS011;73248;52.398;9.814;2023-10-13T11:03:54;12.23;;;4.30;;
30533;SDS011;73248;52.398;9.814;2023-10-13T11:06:25;13.90;;;4.07;;
30533;SDS011;73248;52.398;9.814;2023-10-13T11:09:01;24.27;;;4.93;;
30533;SDS011;73248;52.398;9.814;2023-10-13T11:12:08;8.90;;;4.00;;
30533;SDS011;73248;52.398;9.814;2023-10-13T11:14:40;7.28;;;3.70;;
30533;SDS011;73248;52.398;9.814;2023-10-13T11:17:08;6.88;;;3.38;;
30533;SDS011;73248;52.398;9.814;2023-10-13T11:19:48;11.73;;;4.10;;
30533;SDS011;73248;52.398;9.814;2023-10-13T11:22:20;10.65;;;4.40;;
30533;SDS011;73248;52.398;9.814;2023-10-13T11:25:05;9.43;;;3.85;;
30533;SDS011;73248;52.398;9.814;2023-10-13T11:27:42;9.32;;;4.05;;
30533;SDS011;73248;52.398;9.814;2023-10-13T11:30:10;12.68;;;3.92;;
30533;SDS011;73248;52.398;9.814;2023-10-13T11:32:42;5.88;;;3.08;;
30533;SDS011;73248;52.398;9.814;2023-10-13T11:35:10;6.72;;;2.55;;
30533;SDS011;73248;52.398;9.814;2023-10-13T11:37:45;10.23;;;4.10;;
30533;SDS011;73248;52.398;9.814;2023-10-13T11:40:20;12.73;;;4.13;;
30533;SDS011;73248;52.398;9.814;2023-10-13T11:43:06;9.95;;;4.15;;
30533;SDS011;73248;52.398;9.814;2023-10-13T11:45:38;10.25;;;4.03;;
30533;SDS011;73248;52.398;9.814;2023-10-13T11:48:38;13.88;;;3.67;;
30533;SDS011;73248;52.398;9.814;2023-10-13T11:51:09;11.32;;;3.58;;
30533;SDS011;73248;52.398;9.814;2023-10-13T11:53:43;14.15;;;4.05;;
30533;SDS011;73248;52.398;9.814;2023-10-13T11:56:21;8.80;;;3.60;;
30533;SDS011;73248;52.398;9.814;2023-10-13T11:58:50;17.52;;;4.18;;
30533;SDS011;73248;52.398;9.814;2023-10-13T12:01:18;12.05;;;3.85;;
30533;SDS011;73248;52.398;9.814;2023-10-13T12:03:44;11.13;;;4.15;;
30533;SDS011;73248;52.398;9.814;2023-10-13T12:06:30;6.78;;;3.70;;
30533;SDS011;73248;52.398;9.814;2023-10-13T12:08:59;7.57;;;3.60;;
30533;SDS011;73248;52.398;9.814;2023-10-13T12:11:46;14.80;;;4.10;;
30533;SDS011;73248;52.398;9.814;2023-10-13T12:14:15;14.43;;;4.00;;
30533;SDS011;73248;52.398;9.814;2023-10-13T12:16:43;11.95;;;3.83;;
30533;SDS011;73248;52.398;9.814;2023-10-13T12:19:13;8.20;;;3.75;;
30533;SDS011;73248;52.398;9.814;2023-10-13T12:21:49;14.10;;;4.93;;
30533;SDS011;73248;52.398;9.814;2023-10-13T12:24:15;16.60;;;4.07;;
30533;SDS011;73248;52.398;9.814;2023-10-13T12:27:01;9.35;;;3.72;;
30533;SDS011;73248;52.398;9.814;2023-10-13T12:29:27;16.58;;;4.28;;
30533;SDS011;73248;52.398;9.814;2023-10-13T12:31:57;13.07;;;4.70;;
30533;SDS011;73248;52.398;9.814;2023-10-13T12:34:37;9.40;;;3.97;;
30533;SDS011;73248;52.398;9.814;2023-10-13T12:37:24;15.15;;;5.07;;
30533;SDS011;73248;52.398;9.814;2023-10-13T12:42:56;13.52;;;5.75;;
30533;SDS011;73248;52.398;9.814;2023-10-13T12:45:41;12.32;;;4.32;;
30533;SDS011;73248;52.398;9.814;2023-10-13T12:48:29;15.82;;;5.68;;
30533;SDS011;73248;52.398;9.814;2023-10-13T12:53:49;20.55;;;4.90;;
30533;SDS011;73248;52.398;9.814;2023-10-13T12:56:16;12.02;;;5.20;;
30533;SDS011;73248;52.398;9.814;2023-10-13T12:58:45;17.70;;;5.00;;
30533;SDS011;73248;52.398;9.814;2023-10-13T13:01:26;12.90;;;5.00;;
30533;SDS011;73248;52.398;9.814;2023-10-13T13:03:58;13.55;;;4.68;;
30533;SDS011;73248;52.398;9.814;2023-10-13T13:06:25;18.10;;;4.78;;
30533;SDS011;73248;52.398;9.814;2023-10-13T13:08:51;9.65;;;5.03;;
30533;SDS011;73248;52.398;9.814;2023-10-13T13:11:17;16.33;;;4.80;;
30533;SDS011;73248;52.398;9.814;2023-10-13T13:16:12;8.68;;;3.75;;
30533;SDS011;73248;52.398;9.814;2023-10-13T13:18:38;19.95;;;5.93;;
30533;SDS011;73248;52.398;9.814;2023-10-13T13:21:04;12.00;;;4.55;;
30533;SDS011;73248;52.398;9.814;2023-10-13T13:23:31;12.13;;;4.18;;
30533;SDS011;73248;52.398;9.814;2023-10-13T13:25:59;21.40;;;5.38;;
30533;SDS011;73248;52.398;9.814;2023-10-13T13:28:33;20.75;;;4.68;;
30533;SDS011;73248;52.398;9.814;2023-10-13T13:31:02;20.35;;;5.45;;
30533;SDS011;73248;52.398;9.814;2023-10-13T13:33:33;18.40;;;5.53;;
30533;SDS011;73248;52.398;9.814;2023-10-13T13:36:03;19.58;;;4.60;;
30533;SDS011;73248;52.398;9.814;2023-10-13T13:38:38;17.15;;;5.22;;
30533;SDS011;73248;52.398;9.814;2023-10-13T13:41:08;8.80;;;3.95;;
30533;SDS011;73248;52.398;9.814;2023-10-13T13:43:48;12.25;;;4.97;;
30533;SDS011;73248;52.398;9.814;2023-10-13T13:46:26;16.33;;;4.35;;
30533;SDS011;73248;52.398;9.814;2023-10-13T13:48:57;20.55;;;5.10;;
30533;SDS011;73248;52.398;9.814;2023-10-13T13:51:27;15.10;;;5.68;;
30533;SDS011;73248;52.398;9.814;2023-10-13T13:53:59;15.05;;;4.13;;
30533;SDS011;73248;52.398;9.814;2023-10-13T13:56:25;15.10;;;4.63;;
30533;SDS011;73248;52.398;9.814;2023-10-13T14:01:19;26.10;;;5.43;;
30533;SDS011;73248;52.398;9.814;2023-10-13T14:03:51;16.20;;;5.15;;
30533;SDS011;73248;52.398;9.814;2023-10-13T14:06:24;12.50;;;4.43;;
30533;SDS011;73248;52.398;9.814;2023-10-13T14:08:50;14.23;;;4.63;;
30533;SDS011;73248;52.398;9.814;2023-10-13T14:11:20;12.35;;;4.72;;
30533;SDS011;73248;52.398;9.814;2023-10-13T14:14:22;13.98;;;4.00;;
30533;SDS011;73248;52.398;9.814;2023-10-13T14:16:50;18.02;;;5.88;;
30533;SDS011;73248;52.398;9.814;2023-10-13T14:19:16;21.63;;;4.78;;
30533;SDS011;73248;52.398;9.814;2023-10-13T14:21:52;16.20;;;4.22;;
30533;SDS011;73248;52.398;9.814;2023-10-13T14:24:20;18.35;;;4.93;;
30533;SDS011;73248;52.398;9.814;2023-10-13T14:26:56;19.65;;;5.38;;
30533;SDS011;73248;52.398;9.814;2023-10-13T14:29:45;16.10;;;4.82;;
30533;SDS011;73248;52.398;9.814;2023-10-13T14:32:12;16.88;;;4.72;;
30533;SDS011;73248;52.398;9.814;2023-10-13T14:34:40;18.30;;;4.47;;
30533;SDS011;73248;52.398;9.814;2023-10-13T14:37:13;11.43;;;4.22;;
30533;SDS011;73248;52.398;9.814;2023-10-13T14:39:51;18.35;;;4.60;;
30533;SDS011;73248;52.398;9.814;2023-10-13T14:42:22;13.40;;;4.22;;
30533;SDS011;73248;52.398;9.814;2023-10-13T14:44:53;20.42;;;4.68;;
30533;SDS011;73248;52.398;9.814;2023-10-13T14:47:24;12.55;;;4.53;;
30533;SDS011;73248;52.398;9.814;2023-10-13T14:49:53;15.25;;;4.78;;
30533;SDS011;73248;52.398;9.814;2023-10-13T14:52:27;12.93;;;4.22;;
30533;SDS011;73248;52.398;9.814;2023-10-13T14:54:56;10.43;;;4.30;;
30533;SDS011;73248;52.398;9.814;2023-10-13T14:57:22;14.05;;;4.03;;
30533;SDS011;73248;52.398;9.814;2023-10-13T14:59:51;15.32;;;4.03;;
30533;SDS011;73248;52.398;9.814;2023-10-13T15:02:23;13.13;;;4.53;;
30533;SDS011;73248;52.398;9.814;2023-10-13T15:04:49;18.58;;;4.88;;
30533;SDS011;73248;52.398;9.814;2023-10-13T15:07:15;31.48;;;4.68;;
30533;SDS011;73248;52.398;9.814;2023-10-13T15:09:43;9.07;;;4.40;;
30533;SDS011;73248;52.398;9.814;2023-10-13T15:12:13;17.40;;;4.53;;
30533;SDS011;73248;52.398;9.814;2023-10-13T15:14:42;12.73;;;4.50;;
30533;SDS011;73248;52.398;9.814;2023-10-13T15:19:35;18.08;;;5.00;;
30533;SDS011;73248;52.398;9.814;2023-10-13T15:24:41;16.25;;;4.72;;
30533;SDS011;73248;52.398;9.814;2023-10-13T15:27:22;13.80;;;4.90;;
30533;SDS011;73248;52.398;9.814;2023-10-13T15:29:53;18.05;;;4.90;;
30533;SDS011;73248;52.398;9.814;2023-10-13T15:32:19;11.07;;;5.05;;
30533;SDS011;73248;52.398;9.814;2023-10-13T15:35:06;12.23;;;4.03;;
30533;SDS011;73248;52.398;9.814;2023-10-13T15:37:37;19.23;;;4.97;;
30533;SDS011;73248;52.398;9.814;2023-10-13T15:40:06;12.63;;;4.80;;
30533;SDS011;73248;52.398;9.814;2023-10-13T15:42:40;22.70;;;5.95;;
30533;SDS011;73248;52.398;9.814;2023-10-13T15:45:10;16.70;;;4.70;;
30533;SDS011;73248;52.398;9.814;2023-10-13T15:47:44;14.43;;;5.80;;
30533;SDS011;73248;52.398;9.814;2023-10-13T15:50:15;12.77;;;4.07;;
30533;SDS011;73248;52.398;9.814;2023-10-13T15:52:46;16.35;;;4.90;;
30533;SDS011;73248;52.398;9.814;2023-10-13T15:55:15;20.20;;;5.65;;
30533;SDS011;73248;52.398;9.814;2023-10-13T15:57:42;18.75;;;5.00;;
30533;SDS011;73248;52.398;9.814;2023-10-13T16:00:09;11.48;;;4.38;;
30533;SDS011;73248;52.398;9.814;2023-10-13T16:02:55;19.67;;;5.28;;
30533;SDS011;73248;52.398;9.814;2023-10-13T16:05:30;12.35;;;5.45;;
30533;SDS011;73248;52.398;9.814;2023-10-13T16:08:02;15.98;;;4.90;;